Time;durP1;ratioP1;P1;durP2;ratioP2;P2;SDS_P1;SDS_P2;PMS_P1;PMS_P2;Temp;Humidity;BMP_temperature;BMP_pressure;BME280_temperature;BME280_humidity;BME280_pressure;Samples;Min_cycle;Max_cycle;Signal;HPM_P1;HPM_P2
2022/05/27 00:01:11;;;;;;;12.45;6.47;;;;;;;;;;5061147;28;20025;-48
2022/05/27 00:03:37;;;;;;;9.48;6.00;;;;;;;;;;5053000;28;20043;-48
2022/05/27 00:06:03;;;;;;;11.63;5.82;;;;;;;;;;5053180;28;20031;-49
2022/05/27 00:08:30;;;;;;;12.18;6.40;;;;;;;;;;5055985;28;20092;-49
2022/05/27 00:10:57;;;;;;;13.32;6.75;;;;;;;;;;5057042;28;20100;-49
2022/05/27 00:13:23;;;;;;;9.15;6.50;;;;;;;;;;5057015;28;20027;-49
2022/05/27 00:15:49;;;;;;;10.85;6.85;;;;;;;;;;5057230;28;20036;-48
2022/05/27 00:18:15;;;;;;;14.43;6.72;;;;;;;;;;5056974;28;20024;-48
2022/05/27 00:20:41;;;;;;;11.50;6.55;;;;;;;;;;5056661;28;20036;-49
2022/05/27 00:23:08;;;;;;;9.32;6.22;;;;;;;;;;5056793;28;20071;-48
2022/05/27 00:25:34;;;;;;;12.45;5.90;;;;;;;;;;5056799;28;20492;-48
2022/05/27 00:28:00;;;;;;;9.05;5.13;;;;;;;;;;5056641;28;20021;-48
2022/05/27 00:30:27;;;;;;;10.90;5.18;;;;;;;;;;5056887;28;20033;-48
2022/05/27 00:32:53;;;;;;;11.82;5.05;;;;;;;;;;5056652;28;20025;-49
2022/05/27 00:35:20;;;;;;;12.85;4.97;;;;;;;;;;5056858;28;20154;-48
2022/05/27 00:37:46;;;;;;;9.80;5.40;;;;;;;;;;5056510;28;20045;-48
2022/05/27 00:40:15;;;;;;;7.57;5.55;;;;;;;;;;5056670;28;20049;-49
2022/05/27 00:42:42;;;;;;;10.00;5.82;;;;;;;;;;5056642;28;20028;-49
2022/05/27 00:45:15;;;;;;;11.25;6.72;;;;;;;;;;5056665;28;20040;-49
2022/05/27 00:47:42;;;;;;;14.13;7.20;;;;;;;;;;5056629;28;20447;-49
2022/05/27 00:50:10;;;;;;;9.95;6.60;;;;;;;;;;5056214;28;20072;-49
2022/05/27 00:52:37;;;;;;;12.27;6.82;;;;;;;;;;5056218;28;20416;-49
2022/05/27 00:55:07;;;;;;;11.02;6.88;;;;;;;;;;5056212;28;20087;-48
2022/05/27 00:57:49;;;;;;;9.75;6.85;;;;;;;;;;5056052;28;20495;-49
2022/05/27 01:00:18;;;;;;;12.68;7.18;;;;;;;;;;5056180;28;20447;-49
2022/05/27 01:02:45;;;;;;;12.30;6.65;;;;;;;;;;5056181;28;20028;-49
2022/05/27 01:05:12;;;;;;;9.63;6.50;;;;;;;;;;5056146;28;20017;-49
2022/05/27 01:07:38;;;;;;;11.40;6.47;;;;;;;;;;5055919;28;20033;-49
2022/05/27 01:10:06;;;;;;;9.82;7.20;;;;;;;;;;5056061;28;20381;-49
2022/05/27 01:12:51;;;;;;;11.07;6.65;;;;;;;;;;5055785;28;20158;-49
2022/05/27 01:15:24;;;;;;;11.30;6.05;;;;;;;;;;5055862;28;20036;-48
2022/05/27 01:18:08;;;;;;;10.95;6.50;;;;;;;;;;5055799;28;20116;-48
2022/05/27 01:20:43;;;;;;;11.27;6.60;;;;;;;;;;5055939;28;20096;-48
2022/05/27 01:23:30;;;;;;;14.30;8.30;;;;;;;;;;5055837;28;20041;-49
2022/05/27 01:26:15;;;;;;;10.10;6.53;;;;;;;;;;5038648;28;20041;-49
2022/05/27 01:28:47;;;;;;;9.40;6.15;;;;;;;;;;5055316;28;20033;-49
2022/05/27 01:31:22;;;;;;;12.10;7.10;;;;;;;;;;5055524;28;20037;-49
2022/05/27 01:33:48;;;;;;;11.63;6.55;;;;;;;;;;5055540;28;20055;-49
2022/05/27 01:36:33;;;;;;;9.55;6.38;;;;;;;;;;5055695;28;20032;-49
2022/05/27 01:38:59;;;;;;;12.70;6.55;;;;;;;;;;5055435;28;20074;-49
2022/05/27 01:41:25;;;;;;;11.65;7.15;;;;;;;;;;5055311;28;20040;-49
2022/05/27 01:43:56;;;;;;;9.82;6.88;;;;;;;;;;5055353;28;20021;-49
2022/05/27 01:46:36;;;;;;;11.48;6.45;;;;;;;;;;5055553;28;20029;-49
2022/05/27 01:49:09;;;;;;;12.95;7.68;;;;;;;;;;5055489;28;20076;-49
2022/05/27 01:51:40;;;;;;;15.73;7.60;;;;;;;;;;5054847;28;20373;-49
2022/05/27 01:54:18;;;;;;;16.98;10.45;;;;;;;;;;5055135;28;20504;-49
2022/05/27 01:56:55;;;;;;;21.65;11.75;;;;;;;;;;5055030;28;20036;-48
2022/05/27 01:59:24;;;;;;;21.98;13.10;;;;;;;;;;5054859;28;20063;-48
2022/05/27 02:02:00;;;;;;;24.42;12.90;;;;;;;;;;5054839;28;20029;-48
2022/05/27 02:04:52;;;;;;;33.78;15.30;;;;;;;;;;5054823;28;20029;-48
2022/05/27 02:07:22;;;;;;;30.77;15.05;;;;;;;;;;5050410;28;20511;-48
2022/05/27 02:09:50;;;;;;;17.95;9.48;;;;;;;;;;5054683;28;20087;-49
2022/05/27 02:12:37;;;;;;;14.43;7.57;;;;;;;;;;5054741;28;20454;-48
2022/05/27 02:15:09;;;;;;;12.30;8.13;;;;;;;;;;5054654;28;20499;-49
2022/05/27 02:17:37;;;;;;;51.30;24.83;;;;;;;;;;5036742;28;20029;-49
2022/05/27 02:20:08;;;;;;;194.02;80.13;;;;;;;;;;5054635;28;20470;-49
2022/05/27 02:22:37;;;;;;;294.27;120.30;;;;;;;;;;5054609;28;20029;-50
2022/05/27 02:25:12;;;;;;;270.90;110.55;;;;;;;;;;5054540;28;20025;-48
2022/05/27 02:27:44;;;;;;;197.13;83.53;;;;;;;;;;5054574;28;20029;-49
2022/05/27 02:30:13;;;;;;;195.10;78.30;;;;;;;;;;5053879;28;20031;-48
2022/05/27 02:32:41;;;;;;;101.65;45.53;;;;;;;;;;5054411;28;20044;-49
2022/05/27 02:35:18;;;;;;;137.95;56.63;;;;;;;;;;5054492;28;20031;-49
2022/05/27 02:37:46;;;;;;;82.68;36.08;;;;;;;;;;5054204;28;20029;-50
2022/05/27 02:40:22;;;;;;;99.35;44.28;;;;;;;;;;5054343;28;20021;-49
2022/05/27 02:42:58;;;;;;;86.10;37.08;;;;;;;;;;5054404;28;20502;-48
2022/05/27 02:45:27;;;;;;;83.60;33.28;;;;;;;;;;5054442;28;20032;-49
2022/05/27 02:48:01;;;;;;;85.47;31.73;;;;;;;;;;5054118;28;20469;-49
2022/05/27 02:50:27;;;;;;;72.57;33.85;;;;;;;;;;5053884;28;20033;-48
2022/05/27 02:52:56;;;;;;;90.20;41.20;;;;;;;;;;5054080;28;20063;-49
2022/05/27 02:55:51;;;;;;;149.65;61.17;;;;;;;;;;5054046;28;20045;-49
2022/05/27 02:58:17;;;;;;;100.30;42.08;;;;;;;;;;4953882;29;20039;-49
2022/05/27 03:00:44;;;;;;;92.07;38.17;;;;;;;;;;4953907;29;20031;-48
2022/05/27 03:03:11;;;;;;;116.15;44.25;;;;;;;;;;4954000;29;20039;-48
2022/05/27 03:05:39;;;;;;;132.45;51.63;;;;;;;;;;4953835;29;20109;-48
2022/05/27 03:08:27;;;;;;;198.98;74.18;;;;;;;;;;4954326;29;20099;-47
2022/05/27 03:10:53;;;;;;;171.57;65.07;;;;;;;;;;4953730;29;20050;-48
2022/05/27 03:13:34;;;;;;;151.60;58.35;;;;;;;;;;4953578;29;20102;-48
2022/05/27 03:16:00;;;;;;;141.93;52.90;;;;;;;;;;4953909;29;20047;-48
2022/05/27 03:18:36;;;;;;;93.05;39.55;;;;;;;;;;4953515;29;20075;-49
2022/05/27 03:21:05;;;;;;;71.30;29.00;;;;;;;;;;4953633;29;20039;-49
2022/05/27 03:23:39;;;;;;;60.55;22.85;;;;;;;;;;4953388;29;20377;-49
2022/05/27 03:26:05;;;;;;;46.15;21.42;;;;;;;;;;4953449;29;20031;-48
2022/05/27 03:28:38;;;;;;;68.32;25.83;;;;;;;;;;4953442;29;20032;-48
2022/05/27 03:31:22;;;;;;;69.15;27.40;;;;;;;;;;4953345;29;20461;-52
2022/05/27 03:33:52;;;;;;;57.72;24.35;;;;;;;;;;4968595;28;20040;-49
2022/05/27 03:36:30;;;;;;;129.35;44.33;;;;;;;;;;5053503;28;20040;-48
2022/05/27 03:39:02;;;;;;;67.47;30.55;;;;;;;;;;5053615;28;20166;-49
2022/05/27 03:41:33;;;;;;;93.65;40.95;;;;;;;;;;5053088;28;20028;-48
2022/05/27 03:43:59;;;;;;;;;;;;;;;;;;5053571;28;20036;-48
2022/05/27 03:46:28;;;;;;;63.28;27.75;;;;;;;;;;5053202;28;19908;-50
2022/05/27 03:48:54;;;;;;;72.55;32.30;;;;;;;;;;5053463;28;20025;-49
2022/05/27 03:51:27;;;;;;;70.93;31.70;;;;;;;;;;5053140;28;20068;-49
2022/05/27 03:54:05;;;;;;;55.63;27.85;;;;;;;;;;5053240;28;20397;-49
2022/05/27 03:56:32;;;;;;;51.45;20.15;;;;;;;;;;5053074;28;20021;-48
2022/05/27 03:58:59;;;;;;;35.67;19.48;;;;;;;;;;5053033;28;20021;-47
2022/05/27 04:01:25;;;;;;;52.35;27.75;;;;;;;;;;5053400;28;20025;-52
2022/05/27 04:03:52;;;;;;;51.97;28.00;;;;;;;;;;5052948;28;20021;-53
2022/05/27 04:06:18;;;;;;;38.42;20.00;;;;;;;;;;5034717;28;20094;-54
2022/05/27 04:08:44;;;;;;;34.03;18.20;;;;;;;;;;5053121;28;20021;-53
2022/05/27 04:11:10;;;;;;;31.60;16.85;;;;;;;;;;5052963;28;20056;-54
2022/05/27 04:13:37;;;;;;;33.47;19.55;;;;;;;;;;5053059;28;20021;-55
2022/05/27 04:16:03;;;;;;;46.10;24.33;;;;;;;;;;5053127;28;20028;-55
2022/05/27 04:18:29;;;;;;;33.80;17.02;;;;;;;;;;5052875;28;20663;-54
2022/05/27 04:20:55;;;;;;;31.77;15.57;;;;;;;;;;5052720;28;20386;-54
2022/05/27 04:23:21;;;;;;;26.25;14.98;;;;;;;;;;5053259;28;20023;-54
2022/05/27 04:25:50;;;;;;;28.50;15.40;;;;;;;;;;5053031;28;20029;-54
2022/05/27 04:28:16;;;;;;;25.73;13.90;;;;;;;;;;5053133;28;20083;-53
2022/05/27 04:30:45;;;;;;;25.23;13.52;;;;;;;;;;5052597;28;20021;-54
2022/05/27 04:33:11;;;;;;;29.98;13.63;;;;;;;;;;5052952;28;20029;-53
2022/05/27 04:35:37;;;;;;;22.13;13.23;;;;;;;;;;5052985;28;20013;-54
2022/05/27 04:38:04;;;;;;;22.67;13.10;;;;;;;;;;5052701;28;20461;-54
2022/05/27 04:40:30;;;;;;;21.92;13.50;;;;;;;;;;5052734;28;20082;-53
2022/05/27 04:42:57;;;;;;;21.15;12.85;;;;;;;;;;5052883;28;20526;-53
2022/05/27 04:45:23;;;;;;;21.30;13.75;;;;;;;;;;5052700;28;20032;-54
2022/05/27 04:47:49;;;;;;;25.83;13.82;;;;;;;;;;5052774;28;20358;-54
2022/05/27 04:50:18;;;;;;;26.25;14.55;;;;;;;;;;5052470;28;20029;-54
2022/05/27 04:52:44;;;;;;;23.70;14.05;;;;;;;;;;5052784;28;20033;-54
2022/05/27 04:55:12;;;;;;;23.65;13.45;;;;;;;;;;5056443;28;20021;-54
2022/05/27 04:57:43;;;;;;;24.73;14.15;;;;;;;;;;5056293;28;20108;-53
2022/05/27 05:00:20;;;;;;;31.02;16.40;;;;;;;;;;5056139;28;20428;-50
2022/05/27 05:02:46;;;;;;;36.42;17.63;;;;;;;;;;5056262;28;20439;-53
2022/05/27 05:05:16;;;;;;;38.75;19.05;;;;;;;;;;5056153;28;20021;-53
2022/05/27 05:07:44;;;;;;;41.65;21.70;;;;;;;;;;5056425;28;20052;-53
2022/05/27 05:10:12;;;;;;;50.75;22.73;;;;;;;;;;5055793;28;20048;-52
2022/05/27 05:12:38;;;;;;;52.60;23.52;;;;;;;;;;5037658;28;20045;-53
2022/05/27 05:15:04;;;;;;;41.17;22.80;;;;;;;;;;5055802;28;20481;-52
2022/05/27 05:17:30;;;;;;;35.10;21.08;;;;;;;;;;5056079;28;20044;-52
2022/05/27 05:19:57;;;;;;;49.25;22.25;;;;;;;;;;5056150;28;20021;-52
2022/05/27 05:22:24;;;;;;;40.47;19.80;;;;;;;;;;5056053;28;20141;-53
2022/05/27 05:24:53;;;;;;;39.95;19.05;;;;;;;;;;5055876;28;20074;-52
2022/05/27 05:27:20;;;;;;;35.25;18.40;;;;;;;;;;5055721;28;20496;-52
2022/05/27 05:29:46;;;;;;;33.70;18.17;;;;;;;;;;5055680;28;20039;-53
2022/05/27 05:32:12;;;;;;;39.42;18.70;;;;;;;;;;5055507;28;20037;-53
2022/05/27 05:34:39;;;;;;;40.58;20.15;;;;;;;;;;5055820;28;20472;-53
2022/05/27 05:37:05;;;;;;;41.90;19.98;;;;;;;;;;5055167;28;20044;-52
2022/05/27 05:39:31;;;;;;;40.17;20.35;;;;;;;;;;5054946;28;20020;-53
2022/05/27 05:41:59;;;;;;;38.15;21.10;;;;;;;;;;5055326;28;20534;-53
2022/05/27 05:44:30;;;;;;;49.28;24.65;;;;;;;;;;5036989;28;20059;-50
2022/05/27 05:46:56;;;;;;;39.83;18.45;;;;;;;;;;5055335;28;20524;-50
2022/05/27 05:49:22;;;;;;;35.47;19.13;;;;;;;;;;5055208;28;20025;-53
2022/05/27 05:51:48;;;;;;;29.23;14.85;;;;;;;;;;5055571;28;20086;-53
2022/05/27 05:54:14;;;;;;;29.80;16.38;;;;;;;;;;5055407;28;20032;-54
2022/05/27 05:56:45;;;;;;;31.75;18.45;;;;;;;;;;5036886;28;20530;-54
2022/05/27 05:59:11;;;;;;;28.30;16.20;;;;;;;;;;5055161;28;20025;-54
2022/05/27 06:01:37;;;;;;;34.33;18.65;;;;;;;;;;5055245;28;20387;-54
2022/05/27 06:04:03;;;;;;;33.35;19.45;;;;;;;;;;5055205;28;20070;-55
2022/05/27 06:06:29;;;;;;;35.45;18.75;;;;;;;;;;5054615;28;20029;-54
2022/05/27 06:08:55;;;;;;;35.72;19.63;;;;;;;;;;5036823;28;20029;-54
2022/05/27 06:11:21;;;;;;;30.27;15.38;;;;;;;;;;5054765;28;20049;-54
2022/05/27 06:13:47;;;;;;;35.13;15.48;;;;;;;;;;5054981;28;20017;-54
2022/05/27 06:16:13;;;;;;;28.30;13.18;;;;;;;;;;5055009;28;20025;-54
2022/05/27 06:18:40;;;;;;;30.20;14.60;;;;;;;;;;5054865;28;20032;-54
2022/05/27 06:21:06;;;;;;;26.52;13.50;;;;;;;;;;5054793;28;20381;-54
2022/05/27 06:23:32;;;;;;;31.38;16.60;;;;;;;;;;5054775;28;20036;-55
2022/05/27 06:26:00;;;;;;;25.58;12.88;;;;;;;;;;5036927;28;20469;-56
2022/05/27 06:36:41;;;;;;;31.20;13.15;;;;;;;;;;5055058;28;20059;-54
2022/05/27 06:39:10;;;;;;;36.97;15.88;;;;;;;;;;5054333;28;20025;-54
2022/05/27 06:41:36;;;;;;;41.78;21.13;;;;;;;;;;5054371;28;20053;-54
2022/05/27 06:44:03;;;;;;;46.25;21.83;;;;;;;;;;5054362;28;20033;-53
2022/05/27 06:46:30;;;;;;;49.00;21.83;;;;;;;;;;5054359;28;20067;-55
2022/05/27 06:48:56;;;;;;;56.17;24.38;;;;;;;;;;5054372;28;20017;-58
2022/05/27 06:51:22;;;;;;;53.45;24.48;;;;;;;;;;5054395;28;20040;-56
2022/05/27 06:53:48;;;;;;;56.90;24.83;;;;;;;;;;5036728;28;20478;-54
2022/05/27 06:56:15;;;;;;;60.85;27.25;;;;;;;;;;5054404;28;20154;-54
2022/05/27 06:58:42;;;;;;;69.00;28.15;;;;;;;;;;5054132;28;20100;-48
2022/05/27 07:01:12;;;;;;;72.03;30.63;;;;;;;;;;5054163;28;20031;-53
2022/05/27 07:03:38;;;;;;;77.45;33.08;;;;;;;;;;5053934;28;20028;-54
2022/05/27 07:06:05;;;;;;;90.95;35.95;;;;;;;;;;5053942;28;20441;-54
2022/05/27 07:08:31;;;;;;;98.50;40.15;;;;;;;;;;5053731;28;20032;-55
2022/05/27 07:10:58;;;;;;;90.40;38.17;;;;;;;;;;5053759;28;20647;-54
2022/05/27 07:13:24;;;;;;;76.10;32.70;;;;;;;;;;5053865;28;20028;-54
2022/05/27 07:15:50;;;;;;;83.35;32.90;;;;;;;;;;5053774;28;20087;-54
2022/05/27 07:18:16;;;;;;;81.28;30.92;;;;;;;;;;5053741;28;20029;-55
2022/05/27 07:20:43;;;;;;;38.80;15.90;;;;;;;;;;5053533;28;20032;-54
2022/05/27 07:23:09;;;;;;;54.65;22.42;;;;;;;;;;5053000;28;20160;-54
2022/05/27 07:25:37;;;;;;;46.33;19.27;;;;;;;;;;5053525;28;20373;-54
2022/05/27 07:28:04;;;;;;;42.72;18.98;;;;;;;;;;5053508;28;20159;-54
2022/05/27 07:30:30;;;;;;;31.38;12.40;;;;;;;;;;5053419;28;20036;-54
2022/05/27 07:32:56;;;;;;;21.60;9.50;;;;;;;;;;5053440;28;20025;-54
2022/05/27 07:35:22;;;;;;;22.73;9.35;;;;;;;;;;5053546;28;20095;-54
2022/05/27 07:37:49;;;;;;;26.95;11.60;;;;;;;;;;5053344;28;20545;-54
2022/05/27 07:40:15;;;;;;;8.90;4.53;;;;;;;;;;5053230;28;20428;-54
2022/05/27 07:42:41;;;;;;;15.75;7.32;;;;;;;;;;5053338;28;20017;-54
2022/05/27 07:45:09;;;;;;;26.80;12.25;;;;;;;;;;5053045;28;20492;-54
2022/05/27 07:47:35;;;;;;;35.92;15.93;;;;;;;;;;5052673;28;20485;-54
2022/05/27 07:50:01;;;;;;;45.30;16.88;;;;;;;;;;5052630;28;20508;-55
2022/05/27 07:52:27;;;;;;;37.42;14.23;;;;;;;;;;5052626;28;20041;-54
2022/05/27 07:54:55;;;;;;;31.10;14.32;;;;;;;;;;5053083;28;20020;-54
2022/05/27 07:57:25;;;;;;;24.95;10.98;;;;;;;;;;5052374;28;20033;-54
2022/05/27 07:59:58;;;;;;;19.70;5.97;;;;;;;;;;5050400;28;20056;-54
2022/05/27 08:02:25;;;;;;;11.95;5.32;;;;;;;;;;5052693;28;20061;-54
2022/05/27 08:04:52;;;;;;;12.80;5.03;;;;;;;;;;5053299;28;20032;-54
2022/05/27 08:07:18;;;;;;;12.27;5.63;;;;;;;;;;5053236;28;20074;-54
2022/05/27 08:09:45;;;;;;;16.33;8.82;;;;;;;;;;5052856;28;20067;-54
2022/05/27 08:12:11;;;;;;;25.88;10.60;;;;;;;;;;5049678;28;20045;-54
2022/05/27 08:14:37;;;;;;;19.92;9.00;;;;;;;;;;5053135;28;20083;-54
2022/05/27 08:17:03;;;;;;;14.73;6.82;;;;;;;;;;5052861;28;20021;-54
2022/05/27 08:19:30;;;;;;;16.73;7.18;;;;;;;;;;5052214;28;20060;-54
2022/05/27 08:21:56;;;;;;;15.63;7.50;;;;;;;;;;5052874;28;20392;-53
2022/05/27 08:24:24;;;;;;;16.15;7.82;;;;;;;;;;5052432;28;20477;-54
2022/05/27 08:26:50;;;;;;;15.77;7.72;;;;;;;;;;5052377;28;20068;-54
2022/05/27 08:29:17;;;;;;;24.25;8.07;;;;;;;;;;5054956;28;20025;-54
2022/05/27 08:31:43;;;;;;;16.55;6.50;;;;;;;;;;5053796;28;20033;-54
2022/05/27 08:39:42;;;;;;;14.98;6.55;;;;;;;;;;5055022;28;20091;-54
2022/05/27 08:42:26;;;;;;;19.05;6.43;;;;;;;;;;5056078;28;20033;-54
2022/05/27 08:44:56;;;;;;;13.55;6.25;;;;;;;;;;5048171;28;20515;-54
2022/05/27 08:47:35;;;;;;;12.32;4.72;;;;;;;;;;5050730;28;20110;-57
2022/05/27 08:50:01;;;;;;;14.47;5.77;;;;;;;;;;5050401;28;20377;-55
2022/05/27 08:52:32;;;;;;;15.02;5.28;;;;;;;;;;5050809;28;20330;-54
2022/05/27 08:55:00;;;;;;;14.35;4.65;;;;;;;;;;5052202;28;20441;-55
2022/05/27 09:00:17;;;;;;;13.70;5.95;;;;;;;;;;5076320;28;20032;-55
2022/05/27 09:02:46;;;;;;;10.23;5.60;;;;;;;;;;5076001;28;20031;-55
2022/05/27 09:05:15;;;;;;;14.80;5.80;;;;;;;;;;5076292;28;20492;-53
2022/05/27 09:07:50;;;;;;;14.18;7.05;;;;;;;;;;5076171;28;20041;-54
2022/05/27 09:10:18;;;;;;;15.82;6.38;;;;;;;;;;5075871;28;20086;-53
2022/05/27 09:12:47;;;;;;;14.07;6.43;;;;;;;;;;5075770;28;20079;-54
2022/05/27 09:15:17;;;;;;;24.50;13.85;;;;;;;;;;5075945;28;20047;-54
2022/05/27 09:17:56;;;;;;;12.38;7.53;;;;;;;;;;5075975;28;20090;-54
2022/05/27 09:20:26;;;;;;;12.32;6.85;;;;;;;;;;5075875;28;20502;-53
2022/05/27 09:22:52;;;;;;;9.23;5.33;;;;;;;;;;5075739;28;20040;-53
2022/05/27 09:25:26;;;;;;;16.27;7.68;;;;;;;;;;5075552;28;20564;-54
2022/05/27 09:27:59;;;;;;;11.23;5.80;;;;;;;;;;5070747;28;20024;-51
2022/05/27 09:30:25;;;;;;;11.75;5.85;;;;;;;;;;5055010;28;20032;-53
2022/05/27 09:32:56;;;;;;;14.63;7.05;;;;;;;;;;5055306;28;20539;-59
2022/05/27 09:35:22;;;;;;;;;;;;;;;;;;5055681;28;20503;-54
2022/05/27 09:37:51;;;;;;;46.50;23.33;;;;;;;;;;5055881;28;19904;-49
2022/05/27 09:40:23;;;;;;;9.43;4.97;;;;;;;;;;5053645;28;20028;-50
2022/05/27 09:43:05;;;;;;;9.45;4.47;;;;;;;;;;5052606;28;20043;-53
2022/05/27 09:45:31;;;;;;;13.07;5.05;;;;;;;;;;5052505;28;20032;-53
2022/05/27 09:47:59;;;;;;;13.38;4.13;;;;;;;;;;5054879;28;20032;-53
2022/05/27 09:50:26;;;;;;;11.50;5.45;;;;;;;;;;5055318;28;20040;-53
2022/05/27 09:52:55;;;;;;;9.23;5.20;;;;;;;;;;5054782;28;20102;-53
2022/05/27 09:55:29;;;;;;;6.88;3.75;;;;;;;;;;5054820;28;20024;-54
2022/05/27 09:57:56;;;;;;;6.00;3.33;;;;;;;;;;5054778;28;20100;-53
2022/05/27 10:00:33;;;;;;;4.70;2.65;;;;;;;;;;5053065;28;20052;-52
2022/05/27 10:02:59;;;;;;;5.15;2.70;;;;;;;;;;5054144;28;20033;-53
2022/05/27 10:05:28;;;;;;;4.10;2.50;;;;;;;;;;5054283;28;20461;-52
2022/05/27 10:07:57;;;;;;;4.07;2.20;;;;;;;;;;5054315;28;20100;-52
2022/05/27 10:10:35;;;;;;;6.30;2.10;;;;;;;;;;5053805;28;20028;-53
2022/05/27 10:13:22;;;;;;;5.18;2.65;;;;;;;;;;5054641;28;20041;-51
2022/05/27 10:15:49;;;;;;;7.85;2.45;;;;;;;;;;5053924;28;20028;-52
2022/05/27 10:18:20;;;;;;;9.65;2.63;;;;;;;;;;5054299;28;20035;-51
2022/05/27 10:20:53;;;;;;;2.90;1.80;;;;;;;;;;5054090;28;20017;-54
2022/05/27 10:23:24;;;;;;;3.60;1.85;;;;;;;;;;5051870;28;20033;-53
2022/05/27 10:25:50;;;;;;;2.30;1.42;;;;;;;;;;5048618;28;20034;-53
2022/05/27 10:28:27;;;;;;;3.15;1.60;;;;;;;;;;5049030;28;20081;-54
2022/05/27 10:31:04;;;;;;;1.33;1.20;;;;;;;;;;5047296;28;20028;-55
2022/05/27 10:33:56;;;;;;;3.58;1.20;;;;;;;;;;5050186;28;20431;-54
2022/05/27 10:36:25;;;;;;;5.78;1.20;;;;;;;;;;5045755;28;20037;-53
2022/05/27 10:39:00;;;;;;;2.83;1.40;;;;;;;;;;5050023;28;20024;-58
2022/05/27 10:41:36;;;;;;;3.17;1.30;;;;;;;;;;5047707;28;20114;-57
2022/05/27 10:44:10;;;;;;;4.75;1.30;;;;;;;;;;5050264;28;20035;-55
2022/05/27 10:46:42;;;;;;;5.65;1.88;;;;;;;;;;5048444;28;20115;-60
2022/05/27 10:49:26;;;;;;;1.83;1.23;;;;;;;;;;5048437;28;20497;-55
2022/05/27 10:52:05;;;;;;;5.63;1.23;;;;;;;;;;5048687;28;20758;-60
2022/05/27 10:54:46;;;;;;;5.15;1.55;;;;;;;;;;5050002;28;20032;-59
2022/05/27 11:03:21;;;;;;;2.75;1.23;;;;;;;;;;5031468;28;20053;-53
2022/05/27 11:05:55;;;;;;;4.18;1.40;;;;;;;;;;5028084;28;20045;-53
2022/05/27 11:08:30;;;;;;;3.88;1.15;;;;;;;;;;5033156;28;20025;-53
2022/05/27 11:11:35;;;;;;;3.40;1.30;;;;;;;;;;5032736;28;20048;-53
2022/05/27 11:17:00;;;;;;;4.25;1.40;;;;;;;;;;4991716;28;20038;-52
2022/05/27 11:19:31;;;;;;;2.92;1.20;;;;;;;;;;4991333;28;20035;-52
2022/05/27 11:22:08;;;;;;;5.00;1.30;;;;;;;;;;4991425;28;20035;-53
2022/05/27 11:24:52;;;;;;;3.05;1.50;;;;;;;;;;4991245;28;20134;-53
2022/05/27 11:27:18;;;;;;;3.30;1.40;;;;;;;;;;4991448;28;20034;-52
2022/05/27 11:29:56;;;;;;;2.60;1.13;;;;;;;;;;4990894;28;20026;-51
2022/05/27 11:32:38;;;;;;;4.30;1.70;;;;;;;;;;4991159;28;20146;-53
2022/05/27 11:35:22;;;;;;;5.03;1.90;;;;;;;;;;4991006;28;20018;-52
2022/05/27 11:38:08;;;;;;;4.20;1.88;;;;;;;;;;4990243;28;20050;-51
2022/05/27 11:40:40;;;;;;;3.35;1.40;;;;;;;;;;4988994;28;20026;-52
2022/05/27 11:43:27;;;;;;;2.53;1.40;;;;;;;;;;4991012;28;20030;-52
2022/05/27 11:45:59;;;;;;;3.78;1.40;;;;;;;;;;5030343;28;20041;-50
2022/05/27 11:48:35;;;;;;;5.00;1.38;;;;;;;;;;5032161;28;20033;-52
2022/05/27 11:51:20;;;;;;;2.28;1.30;;;;;;;;;;5032130;28;20112;-51
2022/05/27 11:53:52;;;;;;;5.72;1.67;;;;;;;;;;5032032;28;20026;-50
2022/05/27 11:56:29;;;;;;;3.33;1.55;;;;;;;;;;5031990;28;20017;-51
2022/05/27 11:58:58;;;;;;;2.38;1.15;;;;;;;;;;5031970;28;20032;-52
2022/05/27 12:01:30;;;;;;;4.40;1.50;;;;;;;;;;5024540;28;20049;-50
2022/05/27 12:04:05;;;;;;;3.92;1.40;;;;;;;;;;5014581;28;20061;-51
2022/05/27 12:06:36;;;;;;;4.40;1.42;;;;;;;;;;5016429;28;20030;-51
2022/05/27 12:09:18;;;;;;;1.63;1.20;;;;;;;;;;5016345;28;20026;-50
2022/05/27 12:11:47;;;;;;;3.40;1.55;;;;;;;;;;5016603;28;20049;-51
2022/05/27 12:14:26;;;;;;;2.20;1.25;;;;;;;;;;5015965;28;20100;-52
2022/05/27 12:16:52;;;;;;;7.53;1.30;;;;;;;;;;5016165;28;20112;-48
2022/05/27 12:19:27;;;;;;;3.65;1.27;;;;;;;;;;5016563;28;20030;-53
2022/05/27 12:22:11;;;;;;;1.48;1.30;;;;;;;;;;5016034;28;20030;-51
2022/05/27 12:24:51;;;;;;;5.47;1.50;;;;;;;;;;5016128;28;20037;-51
2022/05/27 12:27:21;;;;;;;3.15;1.83;;;;;;;;;;5016152;28;20018;-49
2022/05/27 12:29:48;;;;;;;2.35;1.48;;;;;;;;;;5015594;28;20034;-51
2022/05/27 12:32:16;;;;;;;2.03;1.30;;;;;;;;;;5015880;28;20429;-50
2022/05/27 12:34:48;;;;;;;4.78;1.52;;;;;;;;;;5015914;28;20156;-49
2022/05/27 12:37:25;;;;;;;5.68;1.70;;;;;;;;;;5015793;28;20030;-52
2022/05/27 12:39:53;;;;;;;3.08;1.50;;;;;;;;;;5015541;28;20084;-51
2022/05/27 12:42:19;;;;;;;3.17;1.92;;;;;;;;;;5015289;28;20018;-49
2022/05/27 12:44:48;;;;;;;2.47;1.73;;;;;;;;;;5015927;28;20018;-53
2022/05/27 12:47:20;;;;;;;5.90;1.80;;;;;;;;;;5015561;28;20026;-51
2022/05/27 12:49:48;;;;;;;2.50;1.40;;;;;;;;;;5015648;28;20022;-49
2022/05/27 12:52:27;;;;;;;4.90;2.08;;;;;;;;;;5015493;28;20115;-50
2022/05/27 12:54:53;;;;;;;3.92;1.90;;;;;;;;;;5015448;28;20026;-49
2022/05/27 13:03:33;;;;;;;5.35;1.80;;;;;;;;;;5015668;28;20057;-50
2022/05/27 13:06:07;;;;;;;3.80;1.70;;;;;;;;;;5015178;28;20484;-50
2022/05/27 13:08:46;;;;;;;6.13;2.20;;;;;;;;;;5015288;28;20500;-50
2022/05/27 13:11:38;;;;;;;6.50;2.25;;;;;;;;;;5004165;28;20030;-49
2022/05/27 13:14:04;;;;;;;7.80;1.98;;;;;;;;;;4987730;28;20076;-52
2022/05/27 13:16:32;;;;;;;6.22;2.15;;;;;;;;;;4995718;28;20490;-51
2022/05/27 13:18:59;;;;;;;4.85;2.00;;;;;;;;;;4995426;28;20386;-54
2022/05/27 13:21:25;;;;;;;8.50;2.47;;;;;;;;;;4994375;28;20382;-52
2022/05/27 13:24:02;;;;;;;7.55;5.15;;;;;;;;;;4995818;28;20096;-52
2022/05/27 13:26:42;;;;;;;21.13;14.43;;;;;;;;;;4995473;28;20034;-51
2022/05/27 13:29:28;;;;;;;38.88;25.75;;;;;;;;;;4995368;28;20038;-51
2022/05/27 13:32:12;;;;;;;10.63;6.97;;;;;;;;;;4994981;28;20042;-53
2022/05/27 13:34:56;;;;;;;37.00;16.17;;;;;;;;;;4995053;28;20038;-52
2022/05/27 13:37:31;;;;;;;54.22;28.17;;;;;;;;;;4995305;28;20109;-52
2022/05/27 13:40:03;;;;;;;58.53;42.58;;;;;;;;;;4995527;28;20022;-50
2022/05/27 13:42:36;;;;;;;42.40;28.25;;;;;;;;;;4995023;28;20489;-50
2022/05/27 13:45:15;;;;;;;19.05;13.20;;;;;;;;;;5013593;28;20389;-47
2022/05/27 13:47:47;;;;;;;4.55;2.72;;;;;;;;;;5014741;28;20113;-52
2022/05/27 13:50:33;;;;;;;43.75;27.13;;;;;;;;;;5014591;28;20045;-50
2022/05/27 13:53:13;;;;;;;111.45;67.32;;;;;;;;;;5014038;28;20041;-51
2022/05/27 13:55:39;;;;;;;50.75;31.77;;;;;;;;;;5010750;28;20050;-51
2022/05/27 13:58:06;;;;;;;64.68;41.85;;;;;;;;;;5011775;28;20030;-52
2022/05/27 14:00:35;;;;;;;16.98;10.40;;;;;;;;;;5014521;28;20030;-51
2022/05/27 14:03:01;;;;;;;25.63;16.60;;;;;;;;;;5052668;28;20268;-52
2022/05/27 14:05:29;;;;;;;19.35;9.15;;;;;;;;;;5031481;28;20025;-52
2022/05/27 14:07:56;;;;;;;15.02;8.65;;;;;;;;;;5037905;28;20391;-52
2022/05/27 14:10:32;;;;;;;8.52;4.93;;;;;;;;;;5008215;28;20614;-53
2022/05/27 14:12:59;;;;;;;48.35;39.67;;;;;;;;;;5037965;28;20032;-53
2022/05/27 14:15:28;;;;;;;81.60;70.78;;;;;;;;;;5037833;28;20029;-51
2022/05/27 14:17:55;;;;;;;11.10;8.20;;;;;;;;;;5037992;28;20035;-53
2022/05/27 14:23:19;;;;;;;26.90;21.00;;;;;;;;;;5038022;28;20086;-50
2022/05/27 14:25:46;;;;;;;14.38;8.80;;;;;;;;;;5036886;28;20484;-48
2022/05/27 14:28:29;;;;;;;18.05;10.88;;;;;;;;;;5037531;28;20025;-51
2022/05/27 14:31:00;;;;;;;10.93;5.50;;;;;;;;;;5037195;28;20425;-51
2022/05/27 14:33:26;;;;;;;8.35;4.00;;;;;;;;;;5036707;28;20041;-51
2022/05/27 14:35:52;;;;;;;8.70;4.03;;;;;;;;;;5037453;28;20020;-53
2022/05/27 14:38:22;;;;;;;8.27;3.72;;;;;;;;;;5053414;28;20049;-56
2022/05/27 14:40:51;;;;;;;10.02;3.35;;;;;;;;;;5054485;28;20028;-57
2022/05/27 14:43:19;;;;;;;8.13;3.03;;;;;;;;;;5054170;28;20036;-57
2022/05/27 14:45:50;;;;;;;8.02;4.22;;;;;;;;;;5054349;28;20021;-57
2022/05/27 14:48:16;;;;;;;;;;;;;;;;;;5054680;28;20533;-53
2022/05/27 14:50:42;;;;;;;8.63;3.72;;;;;;;;;;5054085;28;20006;-52
2022/05/27 14:53:08;;;;;;;54.63;41.85;;;;;;;;;;5054087;28;20048;-55
2022/05/27 14:55:36;;;;;;;38.67;29.30;;;;;;;;;;5054175;28;20484;-55
2022/05/27 14:58:04;;;;;;;28.63;21.05;;;;;;;;;;5054025;28;20033;-57
2022/05/27 15:00:32;;;;;;;7.72;4.07;;;;;;;;;;5053732;28;20353;-52
2022/05/27 15:03:04;;;;;;;17.30;11.05;;;;;;;;;;5053962;28;20037;-55
2022/05/27 15:05:32;;;;;;;10.85;5.07;;;;;;;;;;5047455;28;20013;-54
2022/05/27 15:08:05;;;;;;;56.78;38.17;;;;;;;;;;5037071;28;20024;-57
2022/05/27 15:10:36;;;;;;;43.55;35.72;;;;;;;;;;5036645;28;20072;-53
2022/05/27 15:13:09;;;;;;;;;;;;;;;;;;5037350;28;20025;-56
2022/05/27 15:15:42;;;;;;;50.10;31.63;;;;;;;;;;5036854;28;20387;-53
2022/05/27 15:18:12;;;;;;;38.83;28.73;;;;;;;;;;5036657;28;20087;-53
2022/05/27 15:20:42;;;;;;;26.38;19.13;;;;;;;;;;5036821;28;20804;-53
2022/05/27 15:23:08;;;;;;;60.85;44.05;;;;;;;;;;5036219;28;20184;-49